sensor_id;sensor_type;location;lat;lon;timestamp;pressure;altitude;pressure_sealevel;temperature;humidity
43155;BME280;34212;51.018;13.586;2024-03-22T00:04:19;98423.75;;;10.30;86.87
43155;BME280;34212;51.018;13.586;2024-03-22T00:09:20;98427.25;;;10.30;86.88
43155;BME280;34212;51.018;13.586;2024-03-22T00:14:20;98424.53;;;10.22;87.04
43155;BME280;34212;51.018;13.586;2024-03-22T00:19:21;98425.69;;;10.20;87.19
43155;BME280;34212;51.018;13.586;2024-03-22T00:24:22;98428.81;;;10.15;87.28
43155;BME280;34212;51.018;13.586;2024-03-22T00:29:22;98421.84;;;10.14;87.72
43155;BME280;34212;51.018;13.586;2024-03-22T00:34:23;98413.34;;;10.18;87.84
43155;BME280;34212;51.018;13.586;2024-03-22T00:39:23;98409.91;;;10.26;87.84
43155;BME280;34212;51.018;13.586;2024-03-22T00:44:24;98403.75;;;10.34;87.84
43155;BME280;34212;51.018;13.586;2024-03-22T00:49:24;98391.78;;;10.38;87.74
43155;BME280;34212;51.018;13.586;2024-03-22T00:54:25;98393.09;;;10.42;88.15
43155;BME280;34212;51.018;13.586;2024-03-22T00:59:27;98386.94;;;10.42;87.98
43155;BME280;34212;51.018;13.586;2024-03-22T01:04:27;98389.75;;;10.40;88.18
43155;BME280;34212;51.018;13.586;2024-03-22T01:09:28;98384.44;;;10.40;88.26
43155;BME280;34212;51.018;13.586;2024-03-22T01:14:28;98388.09;;;10.39;88.25
43155;BME280;34212;51.018;13.586;2024-03-22T01:19:29;98376.59;;;10.38;87.80
43155;BME280;34212;51.018;13.586;2024-03-22T01:24:29;98366.59;;;10.32;87.59
43155;BME280;34212;51.018;13.586;2024-03-22T01:29:30;98361.06;;;10.26;88.01
43155;BME280;34212;51.018;13.586;2024-03-22T01:34:31;98351.22;;;10.18;88.23
43155;BME280;34212;51.018;13.586;2024-03-22T01:39:32;98356.22;;;10.13;87.97
43155;BME280;34212;51.018;13.586;2024-03-22T01:44:33;98343.38;;;10.08;87.73
43155;BME280;34212;51.018;13.586;2024-03-22T01:49:33;98344.00;;;10.02;88.16
43155;BME280;34212;51.018;13.586;2024-03-22T01:54:34;98334.84;;;9.97;87.97
43155;BME280;34212;51.018;13.586;2024-03-22T01:59:34;98319.69;;;9.89;88.44
43155;BME280;34212;51.018;13.586;2024-03-22T02:04:35;98328.31;;;9.83;88.13
43155;BME280;34212;51.018;13.586;2024-03-22T02:09:36;98324.97;;;9.81;88.60
43155;BME280;34212;51.018;13.586;2024-03-22T02:14:37;98306.50;;;9.79;88.46
43155;BME280;34212;51.018;13.586;2024-03-22T02:19:38;98299.53;;;9.78;88.29
43155;BME280;34212;51.018;13.586;2024-03-22T02:24:38;98293.34;;;9.78;88.88
43155;BME280;34212;51.018;13.586;2024-03-22T02:29:39;98291.34;;;9.80;88.67
43155;BME280;34212;51.018;13.586;2024-03-22T02:34:39;98288.00;;;9.78;88.29
43155;BME280;34212;51.018;13.586;2024-03-22T02:39:40;98274.38;;;9.73;88.11
43155;BME280;34212;51.018;13.586;2024-03-22T02:44:40;98270.84;;;9.64;87.95
43155;BME280;34212;51.018;13.586;2024-03-22T02:49:43;98268.66;;;9.59;88.25
43155;BME280;34212;51.018;13.586;2024-03-22T02:54:43;98256.34;;;9.58;87.78
43155;BME280;34212;51.018;13.586;2024-03-22T02:59:44;98255.50;;;9.58;88.23
43155;BME280;34212;51.018;13.586;2024-03-22T03:04:44;98263.00;;;9.62;87.73
43155;BME280;34212;51.018;13.586;2024-03-22T03:09:45;98258.53;;;9.63;88.47
43155;BME280;34212;51.018;13.586;2024-03-22T03:14:45;98253.34;;;9.61;88.12
43155;BME280;34212;51.018;13.586;2024-03-22T03:19:46;98256.03;;;9.61;88.74
43155;BME280;34212;51.018;13.586;2024-03-22T03:24:46;98249.69;;;9.62;88.56
43155;BME280;34212;51.018;13.586;2024-03-22T03:29:47;98242.56;;;9.63;89.06
43155;BME280;34212;51.018;13.586;2024-03-22T03:34:47;98234.38;;;9.64;88.94
43155;BME280;34212;51.018;13.586;2024-03-22T03:39:48;98232.06;;;9.69;89.12
43155;BME280;34212;51.018;13.586;2024-03-22T03:44:48;98216.09;;;9.69;88.87
43155;BME280;34212;51.018;13.586;2024-03-22T03:49:49;98210.78;;;9.69;89.43
43155;BME280;34212;51.018;13.586;2024-03-22T03:54:49;98213.94;;;9.73;89.60
43155;BME280;34212;51.018;13.586;2024-03-22T03:59:50;98213.44;;;9.78;89.35
43155;BME280;34212;51.018;13.586;2024-03-22T04:04:53;98215.75;;;9.81;89.50
43155;BME280;34212;51.018;13.586;2024-03-22T04:09:54;98209.47;;;9.82;89.28
43155;BME280;34212;51.018;13.586;2024-03-22T04:14:54;98198.81;;;9.82;88.61
43155;BME280;34212;51.018;13.586;2024-03-22T04:19:55;98202.78;;;9.78;88.98
43155;BME280;34212;51.018;13.586;2024-03-22T04:24:55;98196.13;;;9.74;88.85
43155;BME280;34212;51.018;13.586;2024-03-22T04:29:56;98188.31;;;9.72;88.87
43155;BME280;34212;51.018;13.586;2024-03-22T04:34:56;98182.13;;;9.71;89.01
43155;BME280;34212;51.018;13.586;2024-03-22T04:39:57;98179.97;;;9.67;89.00
43155;BME280;34212;51.018;13.586;2024-03-22T04:44:57;98177.47;;;9.65;88.94
43155;BME280;34212;51.018;13.586;2024-03-22T04:49:58;98171.63;;;9.62;88.60
43155;BME280;34212;51.018;13.586;2024-03-22T04:54:58;98164.63;;;9.53;88.52
43155;BME280;34212;51.018;13.586;2024-03-22T04:59:59;98163.97;;;9.51;89.23
43155;BME280;34212;51.018;13.586;2024-03-22T05:05:00;98161.13;;;9.52;88.83
43155;BME280;34212;51.018;13.586;2024-03-22T05:10:00;98164.47;;;9.54;89.10
43155;BME280;34212;51.018;13.586;2024-03-22T05:15:05;98163.31;;;9.57;89.13
43155;BME280;34212;51.018;13.586;2024-03-22T05:20:06;98158.50;;;9.60;88.65
43155;BME280;34212;51.018;13.586;2024-03-22T05:25:10;98154.50;;;9.64;88.99
43155;BME280;34212;51.018;13.586;2024-03-22T05:30:11;98142.50;;;9.68;89.77
43155;BME280;34212;51.018;13.586;2024-03-22T05:35:12;98146.19;;;9.76;89.80
43155;BME280;34212;51.018;13.586;2024-03-22T05:40:12;98136.53;;;9.83;89.96
43155;BME280;34212;51.018;13.586;2024-03-22T05:45:13;98127.69;;;9.90;90.10
43155;BME280;34212;51.018;13.586;2024-03-22T05:50:13;98125.38;;;9.95;90.08
43155;BME280;34212;51.018;13.586;2024-03-22T05:55:14;98129.88;;;10.03;89.86
43155;BME280;34212;51.018;13.586;2024-03-22T06:00:15;98127.34;;;10.10;90.13
43155;BME280;34212;51.018;13.586;2024-03-22T06:05:15;98123.16;;;10.15;89.97
43155;BME280;34212;51.018;13.586;2024-03-22T06:10:17;98120.81;;;10.21;89.97
43155;BME280;34212;51.018;13.586;2024-03-22T06:15:18;98120.34;;;10.25;89.84
43155;BME280;34212;51.018;13.586;2024-03-22T06:20:19;98117.84;;;10.32;89.88
43155;BME280;34212;51.018;13.586;2024-03-22T06:25:19;98106.78;;;10.43;90.35
43155;BME280;34212;51.018;13.586;2024-03-22T06:30:20;98110.75;;;10.55;90.06
43155;BME280;34212;51.018;13.586;2024-03-22T06:35:21;98105.72;;;10.69;90.16
43155;BME280;34212;51.018;13.586;2024-03-22T06:40:21;98104.16;;;10.82;90.56
43155;BME280;34212;51.018;13.586;2024-03-22T06:45:22;98099.25;;;10.94;90.69
43155;BME280;34212;51.018;13.586;2024-03-22T06:50:22;98092.88;;;11.03;90.55
43155;BME280;34212;51.018;13.586;2024-03-22T06:55:29;98076.31;;;11.08;90.53
43155;BME280;34212;51.018;13.586;2024-03-22T07:00:29;98068.63;;;11.13;90.53
43155;BME280;34212;51.018;13.586;2024-03-22T07:05:30;98059.44;;;11.16;90.30
43155;BME280;34212;51.018;13.586;2024-03-22T07:10:31;98061.75;;;11.19;89.27
43155;BME280;34212;51.018;13.586;2024-03-22T07:15:32;98060.03;;;11.26;88.57
43155;BME280;34212;51.018;13.586;2024-03-22T07:20:33;98063.47;;;11.35;88.08
43155;BME280;34212;51.018;13.586;2024-03-22T07:25:34;98054.56;;;11.42;87.36
43155;BME280;34212;51.018;13.586;2024-03-22T07:30:34;98060.84;;;11.49;86.58
43155;BME280;34212;51.018;13.586;2024-03-22T07:35:36;98055.63;;;11.56;85.93
43155;BME280;34212;51.018;13.586;2024-03-22T07:40:36;98062.00;;;11.70;85.86
43155;BME280;34212;51.018;13.586;2024-03-22T07:45:37;98053.19;;;11.84;84.96
43155;BME280;34212;51.018;13.586;2024-03-22T07:50:37;98055.44;;;11.95;84.94
43155;BME280;34212;51.018;13.586;2024-03-22T07:55:38;98044.97;;;12.09;84.85
43155;BME280;34212;51.018;13.586;2024-03-22T08:00:38;98043.75;;;12.26;85.22
43155;BME280;34212;51.018;13.586;2024-03-22T08:05:39;98039.69;;;12.45;85.54
43155;BME280;34212;51.018;13.586;2024-03-22T08:10:39;98034.97;;;12.62;85.88
43155;BME280;34212;51.018;13.586;2024-03-22T08:15:40;98033.47;;;12.74;85.80
43155;BME280;34212;51.018;13.586;2024-03-22T08:20:41;98017.66;;;12.79;86.06
43155;BME280;34212;51.018;13.586;2024-03-22T08:25:42;98020.88;;;12.89;85.40
43155;BME280;34212;51.018;13.586;2024-03-22T08:30:42;98024.09;;;13.00;85.01
43155;BME280;34212;51.018;13.586;2024-03-22T08:35:43;98010.56;;;13.08;83.82
43155;BME280;34212;51.018;13.586;2024-03-22T08:40:43;98008.41;;;13.18;84.04
43155;BME280;34212;51.018;13.586;2024-03-22T08:45:44;98007.28;;;13.27;83.78
43155;BME280;34212;51.018;13.586;2024-03-22T08:50:44;98009.44;;;13.38;84.05
43155;BME280;34212;51.018;13.586;2024-03-22T08:55:46;97998.81;;;13.52;82.85
43155;BME280;34212;51.018;13.586;2024-03-22T09:00:46;97997.28;;;13.64;82.64
43155;BME280;34212;51.018;13.586;2024-03-22T09:05:47;97996.34;;;13.78;82.35
43155;BME280;34212;51.018;13.586;2024-03-22T09:10:48;97986.28;;;13.80;81.42
43155;BME280;34212;51.018;13.586;2024-03-22T09:15:49;97982.97;;;13.78;80.88
43155;BME280;34212;51.018;13.586;2024-03-22T09:20:52;97981.19;;;13.92;81.74
43155;BME280;34212;51.018;13.586;2024-03-22T09:25:53;97977.34;;;14.08;82.01
43155;BME280;34212;51.018;13.586;2024-03-22T09:30:53;97976.16;;;14.17;81.79
43155;BME280;34212;51.018;13.586;2024-03-22T09:35:54;97969.41;;;14.28;81.75
43155;BME280;34212;51.018;13.586;2024-03-22T09:40:55;97956.69;;;14.43;81.24
43155;BME280;34212;51.018;13.586;2024-03-22T09:45:55;97952.63;;;14.61;80.08
43155;BME280;34212;51.018;13.586;2024-03-22T09:50:56;97953.28;;;14.69;80.01
43155;BME280;34212;51.018;13.586;2024-03-22T09:55:56;97961.16;;;14.77;79.31
43155;BME280;34212;51.018;13.586;2024-03-22T10:00:59;97941.16;;;14.87;78.14
43155;BME280;34212;51.018;13.586;2024-03-22T10:06:01;97945.25;;;14.83;77.67
43155;BME280;34212;51.018;13.586;2024-03-22T10:11:02;97937.41;;;14.74;78.15
43155;BME280;34212;51.018;13.586;2024-03-22T10:16:03;97927.88;;;14.65;77.28
43155;BME280;34212;51.018;13.586;2024-03-22T10:21:04;97922.94;;;14.75;78.16
43155;BME280;34212;51.018;13.586;2024-03-22T10:26:05;97917.81;;;14.94;77.61
43155;BME280;34212;51.018;13.586;2024-03-22T10:31:05;97918.84;;;15.19;77.40
43155;BME280;34212;51.018;13.586;2024-03-22T10:36:06;97906.44;;;15.45;77.70
43155;BME280;34212;51.018;13.586;2024-03-22T10:41:07;97901.28;;;15.70;78.13
43155;BME280;34212;51.018;13.586;2024-03-22T10:46:08;97901.59;;;16.00;78.87
43155;BME280;34212;51.018;13.586;2024-03-22T10:51:09;97894.53;;;16.12;77.75
43155;BME280;34212;51.018;13.586;2024-03-22T10:56:11;97886.25;;;16.14;77.41
43155;BME280;34212;51.018;13.586;2024-03-22T11:01:22;97875.03;;;16.24;78.24
43155;BME280;34212;51.018;13.586;2024-03-22T11:06:23;97876.22;;;16.34;77.70
43155;BME280;34212;51.018;13.586;2024-03-22T11:11:28;97869.16;;;16.40;76.98
43155;BME280;34212;51.018;13.586;2024-03-22T11:16:29;97861.25;;;16.45;77.23
43155;BME280;34212;51.018;13.586;2024-03-22T11:21:32;97850.94;;;16.42;76.01
43155;BME280;34212;51.018;13.586;2024-03-22T11:26:33;97842.66;;;16.37;75.20
43155;BME280;34212;51.018;13.586;2024-03-22T11:31:34;97840.34;;;16.40;75.21
43155;BME280;34212;51.018;13.586;2024-03-22T11:36:35;97829.97;;;16.44;74.71
43155;BME280;34212;51.018;13.586;2024-03-22T11:41:35;97822.53;;;16.46;73.72
43155;BME280;34212;51.018;13.586;2024-03-22T11:46:36;97806.94;;;16.55;73.76
43155;BME280;34212;51.018;13.586;2024-03-22T11:51:38;97810.47;;;16.55;73.12
43155;BME280;34212;51.018;13.586;2024-03-22T11:56:39;97797.19;;;16.60;73.37
43155;BME280;34212;51.018;13.586;2024-03-22T12:01:40;97795.69;;;16.65;73.71
43155;BME280;34212;51.018;13.586;2024-03-22T12:06:42;97792.28;;;16.76;74.06
43155;BME280;34212;51.018;13.586;2024-03-22T12:11:42;97794.34;;;16.80;73.34
43155;BME280;34212;51.018;13.586;2024-03-22T12:16:43;97781.44;;;16.89;73.65
43155;BME280;34212;51.018;13.586;2024-03-22T12:21:44;97776.94;;;16.83;72.21
43155;BME280;34212;51.018;13.586;2024-03-22T12:26:45;97772.41;;;16.77;72.89
43155;BME280;34212;51.018;13.586;2024-03-22T12:31:46;97762.88;;;16.74;73.11
43155;BME280;34212;51.018;13.586;2024-03-22T12:36:46;97762.41;;;16.84;73.87
43155;BME280;34212;51.018;13.586;2024-03-22T12:41:47;97747.41;;;16.95;74.50
43155;BME280;34212;51.018;13.586;2024-03-22T12:46:48;97745.81;;;16.87;73.18
43155;BME280;34212;51.018;13.586;2024-03-22T12:51:49;97744.63;;;16.83;73.31
43155;BME280;34212;51.018;13.586;2024-03-22T12:56:49;97730.09;;;16.84;74.62
43155;BME280;34212;51.018;13.586;2024-03-22T13:01:50;97723.06;;;16.83;75.42
43155;BME280;34212;51.018;13.586;2024-03-22T13:06:50;97717.50;;;16.78;76.34
43155;BME280;34212;51.018;13.586;2024-03-22T13:11:51;97699.56;;;16.65;77.21
43155;BME280;34212;51.018;13.586;2024-03-22T13:16:51;97696.19;;;16.51;77.37
43155;BME280;34212;51.018;13.586;2024-03-22T13:21:52;97696.66;;;16.42;76.78
43155;BME280;34212;51.018;13.586;2024-03-22T13:26:53;97687.38;;;16.37;76.93
43155;BME280;34212;51.018;13.586;2024-03-22T13:31:53;97673.88;;;16.44;77.47
43155;BME280;34212;51.018;13.586;2024-03-22T13:36:54;97664.78;;;16.45;77.01
43155;BME280;34212;51.018;13.586;2024-03-22T13:41:54;97660.59;;;16.49;77.03
43155;BME280;34212;51.018;13.586;2024-03-22T13:46:55;97651.84;;;16.54;77.07
43155;BME280;34212;51.018;13.586;2024-03-22T13:51:57;97651.56;;;16.62;77.54
43155;BME280;34212;51.018;13.586;2024-03-22T13:56:58;97637.03;;;16.63;77.55
43155;BME280;34212;51.018;13.586;2024-03-22T14:01:59;97630.84;;;16.62;77.88
43155;BME280;34212;51.018;13.586;2024-03-22T14:06:59;97618.88;;;16.58;77.94
43155;BME280;34212;51.018;13.586;2024-03-22T14:12:04;97611.84;;;16.57;77.32
43155;BME280;34212;51.018;13.586;2024-03-22T14:17:05;97610.19;;;16.56;77.22
43155;BME280;34212;51.018;13.586;2024-03-22T14:22:06;97602.81;;;16.52;77.45
43155;BME280;34212;51.018;13.586;2024-03-22T14:27:06;97593.47;;;16.54;78.21
43155;BME280;34212;51.018;13.586;2024-03-22T14:32:07;97596.16;;;16.54;78.07
43155;BME280;34212;51.018;13.586;2024-03-22T14:37:08;97589.63;;;16.44;78.48
43155;BME280;34212;51.018;13.586;2024-03-22T14:42:08;97582.22;;;16.39;78.98
43155;BME280;34212;51.018;13.586;2024-03-22T14:47:09;97585.19;;;16.31;79.28
43155;BME280;34212;51.018;13.586;2024-03-22T14:52:10;97573.88;;;16.22;79.08
43155;BME280;34212;51.018;13.586;2024-03-22T14:57:10;97572.38;;;16.08;78.36
43155;BME280;34212;51.018;13.586;2024-03-22T15:02:11;97569.34;;;15.98;78.66
43155;BME280;34212;51.018;13.586;2024-03-22T15:07:11;97563.44;;;15.89;77.66
43155;BME280;34212;51.018;13.586;2024-03-22T15:12:12;97559.53;;;15.85;77.59
43155;BME280;34212;51.018;13.586;2024-03-22T15:17:13;97552.50;;;15.84;77.73
43155;BME280;34212;51.018;13.586;2024-03-22T15:22:16;97559.09;;;15.88;78.35
43155;BME280;34212;51.018;13.586;2024-03-22T15:27:18;97548.31;;;15.88;78.57
43155;BME280;34212;51.018;13.586;2024-03-22T15:32:19;97549.81;;;15.84;79.35
43155;BME280;34212;51.018;13.586;2024-03-22T15:37:20;97548.00;;;15.78;79.89
43155;BME280;34212;51.018;13.586;2024-03-22T15:42:21;97543.88;;;15.75;80.22
43155;BME280;34212;51.018;13.586;2024-03-22T15:47:22;97542.44;;;15.73;80.76
43155;BME280;34212;51.018;13.586;2024-03-22T15:52:23;97546.81;;;15.74;81.26
43155;BME280;34212;51.018;13.586;2024-03-22T15:57:24;97538.94;;;15.72;81.42
43155;BME280;34212;51.018;13.586;2024-03-22T16:02:24;97533.19;;;15.68;81.74
43155;BME280;34212;51.018;13.586;2024-03-22T16:07:25;97523.91;;;15.64;81.88
43155;BME280;34212;51.018;13.586;2024-03-22T16:12:26;97522.66;;;15.60;82.15
43155;BME280;34212;51.018;13.586;2024-03-22T16:17:26;97517.56;;;15.52;82.46
43155;BME280;34212;51.018;13.586;2024-03-22T16:22:27;97516.63;;;15.40;82.29
43155;BME280;34212;51.018;13.586;2024-03-22T16:27:28;97505.13;;;15.33;82.38
43155;BME280;34212;51.018;13.586;2024-03-22T16:32:28;97511.13;;;15.28;82.42
43155;BME280;34212;51.018;13.586;2024-03-22T16:37:29;97505.38;;;15.24;82.50
43155;BME280;34212;51.018;13.586;2024-03-22T16:42:29;97492.13;;;15.23;82.66
43155;BME280;34212;51.018;13.586;2024-03-22T16:47:32;97492.81;;;15.18;82.52
43155;BME280;34212;51.018;13.586;2024-03-22T16:52:33;97485.19;;;15.15;82.97
43155;BME280;34212;51.018;13.586;2024-03-22T16:57:33;97498.00;;;15.13;83.20
43155;BME280;34212;51.018;13.586;2024-03-22T17:02:34;97493.47;;;15.07;83.13
43155;BME280;34212;51.018;13.586;2024-03-22T17:07:35;97493.09;;;15.04;83.18
43155;BME280;34212;51.018;13.586;2024-03-22T17:12:35;97501.59;;;15.00;82.92
43155;BME280;34212;51.018;13.586;2024-03-22T17:17:36;97503.88;;;14.97;82.97
43155;BME280;34212;51.018;13.586;2024-03-22T17:22:37;97501.00;;;14.92;82.84
43155;BME280;34212;51.018;13.586;2024-03-22T17:27:37;97501.03;;;14.85;82.46
43155;BME280;34212;51.018;13.586;2024-03-22T17:32:38;97511.81;;;14.78;82.80
43155;BME280;34212;51.018;13.586;2024-03-22T17:37:38;97502.97;;;14.71;82.60
43155;BME280;34212;51.018;13.586;2024-03-22T17:42:40;97494.94;;;14.71;82.92
43155;BME280;34212;51.018;13.586;2024-03-22T17:47:40;97487.94;;;14.70;83.17
43155;BME280;34212;51.018;13.586;2024-03-22T17:52:41;97491.63;;;14.69;83.95
43155;BME280;34212;51.018;13.586;2024-03-22T17:57:41;97495.16;;;14.63;84.26
43155;BME280;34212;51.018;13.586;2024-03-22T18:02:42;97486.72;;;14.60;84.26
43155;BME280;34212;51.018;13.586;2024-03-22T18:07:43;97486.31;;;14.56;84.69
43155;BME280;34212;51.018;13.586;2024-03-22T18:12:43;97479.75;;;14.52;85.11
43155;BME280;34212;51.018;13.586;2024-03-22T18:17:44;97467.75;;;14.48;84.95
43155;BME280;34212;51.018;13.586;2024-03-22T18:22:44;97465.47;;;14.45;85.77
43155;BME280;34212;51.018;13.586;2024-03-22T18:27:45;97469.41;;;14.42;85.53
43155;BME280;34212;51.018;13.586;2024-03-22T18:32:46;97465.31;;;14.40;85.86
43155;BME280;34212;51.018;13.586;2024-03-22T18:37:46;97464.06;;;14.36;86.21
43155;BME280;34212;51.018;13.586;2024-03-22T18:42:46;97451.50;;;14.29;86.05
43155;BME280;34212;51.018;13.586;2024-03-22T18:47:47;97450.72;;;14.22;86.05
43155;BME280;34212;51.018;13.586;2024-03-22T18:52:48;97436.09;;;14.18;86.58
43155;BME280;34212;51.018;13.586;2024-03-22T18:57:48;97438.16;;;14.16;86.58
43155;BME280;34212;51.018;13.586;2024-03-22T19:02:49;97428.47;;;14.15;86.19
43155;BME280;34212;51.018;13.586;2024-03-22T19:07:49;97416.69;;;14.16;86.52
43155;BME280;34212;51.018;13.586;2024-03-22T19:12:50;97413.19;;;14.16;85.99
43155;BME280;34212;51.018;13.586;2024-03-22T19:17:53;97391.94;;;14.14;85.66
43155;BME280;34212;51.018;13.586;2024-03-22T19:22:54;97351.13;;;14.12;85.33
43155;BME280;34212;51.018;13.586;2024-03-22T19:27:55;97365.16;;;14.07;85.45
43155;BME280;34212;51.018;13.586;2024-03-22T19:32:57;97359.84;;;14.01;85.67
43155;BME280;34212;51.018;13.586;2024-03-22T19:37:58;97349.09;;;14.01;85.82
43155;BME280;34212;51.018;13.586;2024-03-22T19:42:59;97370.78;;;13.99;86.01
43155;BME280;34212;51.018;13.586;2024-03-22T19:47:59;97378.44;;;13.89;86.11
43155;BME280;34212;51.018;13.586;2024-03-22T19:53:00;97373.09;;;13.82;86.68
43155;BME280;34212;51.018;13.586;2024-03-22T19:58:00;97367.72;;;13.82;86.68
43155;BME280;34212;51.018;13.586;2024-03-22T20:03:00;97358.69;;;13.83;86.90
43155;BME280;34212;51.018;13.586;2024-03-22T20:08:01;97352.69;;;13.81;87.00
43155;BME280;34212;51.018;13.586;2024-03-22T20:13:02;97343.00;;;13.80;87.17
43155;BME280;34212;51.018;13.586;2024-03-22T20:18:02;97345.06;;;13.78;86.81
43155;BME280;34212;51.018;13.586;2024-03-22T20:23:03;97347.56;;;13.73;86.65
43155;BME280;34212;51.018;13.586;2024-03-22T20:28:05;97339.34;;;13.68;87.00
43155;BME280;34212;51.018;13.586;2024-03-22T20:33:07;97345.72;;;13.67;87.04
